Kreschenka, Russia
Current Conditions -  °F | °C
As of 6:00 PM on Friday 24 Oct 2014 (Local Time) from UNNT Reporting Station
Overcast Overcast  
Wind Chill: 38°   Ceiling: 10000
Heat Index: 43°   Visibility: 6mi
Dew Point: 39°   Wind: 9mph
Humidity: 87%   Direction: 160°SSE
Pressure: 29.85"   Gusts: NA
Location:  55.85°N, 80.03°E
Report Text: UNNT 241100Z 16004MPS 9999 SCT020CB OVC100 06/04 Q1011 2529015616090070 NOSIG RMK QFE748/0997
Loading
Personal Weather Stations






























Interactive Weather Map
Tropical Storm Tracking
New forecast layout! Learn more

10-Day Weather Forecast

Advertisements
Track Severe Weather on mobile